createdAt,value
2023-01-28T00:01:28.347Z,93.12
2023-01-28T00:03:56.250Z,93.06
2023-01-28T00:06:24.074Z,93.31
2023-01-28T00:08:51.960Z,92.99
2023-01-28T00:11:19.776Z,93.37
2023-01-28T00:13:47.628Z,93.52
2023-01-28T00:16:15.526Z,94.22
2023-01-28T00:18:43.496Z,92.85
2023-01-28T00:21:13.479Z,93.49
2023-01-28T00:23:41.922Z,92.20
2023-01-28T00:26:14.096Z,92.04
2023-01-28T00:28:43.011Z,92.29
2023-01-28T00:31:21.310Z,92.07
2023-01-28T00:33:49.981Z,92.58
2023-01-28T00:36:20.627Z,92.36
2023-01-28T00:39:06.680Z,92.35
2023-01-28T00:41:34.436Z,92.72
2023-01-28T00:44:02.290Z,93.23
2023-01-28T00:46:30.065Z,92.62
2023-01-28T00:48:58.107Z,92.65
2023-01-28T00:51:26.066Z,92.34
2023-01-28T00:53:55.310Z,93.03
2023-01-28T00:56:23.171Z,92.18
2023-01-28T00:58:51.207Z,92.78
2023-01-28T01:01:23.824Z,93.72
2023-01-28T01:04:03.462Z,93.11
2023-01-28T01:06:36.337Z,93.67
2023-01-28T01:09:08.113Z,92.23
2023-01-28T01:11:36.319Z,92.67
2023-01-28T01:14:06.290Z,92.96
2023-01-28T01:16:34.579Z,92.84
2023-01-28T01:19:03.914Z,92.77
2023-01-28T01:21:31.918Z,92.48
2023-01-28T01:23:59.749Z,93.26
2023-01-28T01:26:28.827Z,92.83
2023-01-28T01:28:56.638Z,93.43
2023-01-28T01:31:24.658Z,93.20
2023-01-28T01:33:52.805Z,92.63
2023-01-28T01:36:22.845Z,93.31
2023-01-28T01:38:54.558Z,92.97
2023-01-28T01:41:31.162Z,93.15
2023-01-28T01:44:00.932Z,92.82
2023-01-28T01:46:28.584Z,92.51
2023-01-28T01:48:56.735Z,92.39
2023-01-28T01:51:32.219Z,92.77
2023-01-28T01:54:00.062Z,92.41
2023-01-28T01:56:30.837Z,93.80
2023-01-28T01:58:58.597Z,92.73
2023-01-28T02:01:28.876Z,92.47
2023-01-28T02:04:04.053Z,91.78
2023-01-28T02:06:32.392Z,92.09
2023-01-28T02:09:00.253Z,92.26
2023-01-28T02:11:30.535Z,92.27
2023-01-28T02:13:59.335Z,92.11
2023-01-28T02:16:27.275Z,92.44
2023-01-28T02:18:55.113Z,92.19
2023-01-28T02:21:37.824Z,92.67
2023-01-28T02:24:38.864Z,93.45
2023-01-28T02:27:37.125Z,92.85
2023-01-28T02:30:09.115Z,93.08
2023-01-28T02:33:14.514Z,93.50
2023-01-28T02:35:56.174Z,93.30
2023-01-28T02:38:33.350Z,93.17
2023-01-28T02:41:07.659Z,93.78
2023-01-28T02:43:35.744Z,93.64
2023-01-28T02:46:39.925Z,93.04
2023-01-28T02:49:24.094Z,93.07
2023-01-28T02:52:06.717Z,92.95
2023-01-28T02:54:46.132Z,93.20
2023-01-28T02:57:31.827Z,93.56
2023-01-28T03:00:13.378Z,92.44
2023-01-28T03:02:48.066Z,93.10
2023-01-28T03:05:21.634Z,92.81
2023-01-28T03:07:49.437Z,93.05
2023-01-28T03:10:19.011Z,93.12
2023-01-28T03:13:05.608Z,92.89
2023-01-28T03:16:06.428Z,92.60
2023-01-28T03:18:59.832Z,92.71
2023-01-28T03:21:50.776Z,93.19
2023-01-28T03:24:46.146Z,93.59
2023-01-28T03:27:43.291Z,93.16
2023-01-28T03:30:42.720Z,93.39
2023-01-28T03:33:29.110Z,92.99
2023-01-28T03:36:15.316Z,93.93
2023-01-28T03:38:43.477Z,93.84
2023-01-28T03:41:12.125Z,93.55
2023-01-28T03:43:39.951Z,93.22
2023-01-28T03:46:07.796Z,93.52
2023-01-28T03:48:35.567Z,92.23
2023-01-28T03:51:03.341Z,92.55
2023-01-28T03:53:31.128Z,93.42
2023-01-28T03:55:59.280Z,93.68
2023-01-28T03:58:47.723Z,93.55
2023-01-28T04:01:15.477Z,92.85
2023-01-28T04:03:43.282Z,93.12
2023-01-28T04:06:11.284Z,93.83
2023-01-28T04:08:39.079Z,93.97
2023-01-28T04:11:20.673Z,93.97
2023-01-28T04:13:49.467Z,94.05
2023-01-28T04:16:17.915Z,93.70
2023-01-28T04:18:45.909Z,94.08
2023-01-28T04:21:13.760Z,93.57
2023-01-28T04:23:41.537Z,93.28
2023-01-28T04:26:09.657Z,93.38
2023-01-28T04:28:37.504Z,93.90
2023-01-28T04:31:05.322Z,94.32
2023-01-28T04:33:33.358Z,93.58
2023-01-28T04:36:01.153Z,93.84
2023-01-28T04:38:28.978Z,94.08
2023-01-28T04:40:56.834Z,93.63
2023-01-28T04:43:24.784Z,93.93
2023-01-28T04:45:52.774Z,93.90
2023-01-28T04:48:20.553Z,93.72
2023-01-28T04:50:48.323Z,93.94
2023-01-28T04:53:16.161Z,94.12
2023-01-28T04:55:43.905Z,94.00
2023-01-28T04:58:11.755Z,93.13
2023-01-28T05:00:39.542Z,92.92
2023-01-28T05:03:07.303Z,93.96
2023-01-28T05:05:35.047Z,94.60
2023-01-28T05:08:02.780Z,93.06
2023-01-28T05:10:30.594Z,93.19
2023-01-28T05:12:58.409Z,92.27
2023-01-28T05:15:26.304Z,92.90
2023-01-28T05:17:57.033Z,93.18
2023-01-28T05:20:25.230Z,92.94
2023-01-28T05:22:53.300Z,92.82
2023-01-28T05:25:21.050Z,91.93
2023-01-28T05:27:54.725Z,92.47
2023-01-28T05:30:22.823Z,92.32
2023-01-28T05:32:50.862Z,92.99
2023-01-28T05:35:18.940Z,93.12
2023-01-28T05:37:46.819Z,93.52
2023-01-28T05:40:15.087Z,94.04
2023-01-28T05:42:43.158Z,93.03
2023-01-28T05:45:11.357Z,92.01
2023-01-28T05:47:39.594Z,93.04
2023-01-28T05:50:08.098Z,93.26
2023-01-28T05:52:35.830Z,93.56
2023-01-28T05:55:04.277Z,93.76
2023-01-28T05:57:32.052Z,94.08
2023-01-28T05:59:59.917Z,93.28
2023-01-28T06:02:27.799Z,92.45
2023-01-28T06:04:55.716Z,92.11
2023-01-28T06:07:25.129Z,92.24
2023-01-28T06:09:53.004Z,92.67
2023-01-28T06:12:20.802Z,92.80
2023-01-28T06:14:48.650Z,92.58
2023-01-28T06:17:16.543Z,92.79
2023-01-28T06:19:45.096Z,91.84
2023-01-28T06:22:12.857Z,91.83
2023-01-28T06:24:40.687Z,92.09
2023-01-28T06:27:08.552Z,92.27
2023-01-28T06:29:36.728Z,92.13
2023-01-28T06:32:04.752Z,90.79
2023-01-28T06:34:32.605Z,90.78
2023-01-28T06:37:00.482Z,91.82
2023-01-28T06:39:29.426Z,91.20
2023-01-28T06:41:57.301Z,91.64
2023-01-28T06:44:25.055Z,91.28
2023-01-28T06:46:52.883Z,91.56
2023-01-28T06:49:21.750Z,91.33
2023-01-28T06:51:49.733Z,91.32
2023-01-28T06:54:17.533Z,91.57
2023-01-28T06:56:45.492Z,91.12
2023-01-28T06:59:13.294Z,91.03
2023-01-28T07:01:41.194Z,90.91
2023-01-28T07:04:09.866Z,91.32
2023-01-28T07:06:37.627Z,90.83
2023-01-28T07:09:05.389Z,90.73
2023-01-28T07:11:33.386Z,90.48
2023-01-28T07:14:01.251Z,90.75
2023-01-28T07:16:28.995Z,90.35
2023-01-28T07:18:56.775Z,90.53
2023-01-28T07:21:24.567Z,90.01
2023-01-28T07:23:52.438Z,90.00
2023-01-28T07:26:21.296Z,90.75
2023-01-28T07:28:49.099Z,90.85
2023-01-28T07:31:17.052Z,90.46
2023-01-28T07:33:44.932Z,90.36
2023-01-28T07:36:12.690Z,88.78
2023-01-28T07:38:40.570Z,89.49
2023-01-28T07:41:08.547Z,89.40
2023-01-28T07:43:36.328Z,89.85
2023-01-28T07:46:04.124Z,88.22
2023-01-28T07:48:32.145Z,89.41
2023-01-28T07:51:00.442Z,89.62
2023-01-28T07:53:28.319Z,89.32
2023-01-28T07:56:03.033Z,89.81
2023-01-28T07:58:30.790Z,89.47
2023-01-28T08:01:00.004Z,89.87
2023-01-28T08:03:28.182Z,89.06
2023-01-28T08:05:57.367Z,89.86
2023-01-28T08:08:25.777Z,88.55
2023-01-28T08:10:53.810Z,88.81
2023-01-28T08:13:21.657Z,88.24
2023-01-28T08:15:49.487Z,87.75
2023-01-28T08:18:17.609Z,88.43
2023-01-28T08:20:46.589Z,87.65
2023-01-28T08:23:23.105Z,87.75
2023-01-28T08:25:51.115Z,87.16
2023-01-28T08:28:18.898Z,87.45
2023-01-28T08:30:46.843Z,87.19
2023-01-28T08:33:18.690Z,87.02
2023-01-28T08:35:46.589Z,85.82
2023-01-28T08:38:14.996Z,86.31
2023-01-28T08:40:42.780Z,86.51
2023-01-28T08:43:10.704Z,84.81
2023-01-28T08:45:38.526Z,84.66
2023-01-28T08:48:06.886Z,85.43
2023-01-28T08:50:36.965Z,85.12
2023-01-28T08:53:12.861Z,84.68
2023-01-28T08:55:40.650Z,84.54
2023-01-28T08:58:11.110Z,84.24
2023-01-28T09:00:39.076Z,84.57
2023-01-28T09:03:07.109Z,83.94
2023-01-28T09:05:38.520Z,83.83
2023-01-28T09:08:11.076Z,83.83
2023-01-28T09:10:39.043Z,83.19
2023-01-28T09:13:07.842Z,83.39
2023-01-28T09:15:35.995Z,83.76
2023-01-28T09:18:03.760Z,84.60
2023-01-28T09:20:36.177Z,81.81
2023-01-28T09:23:04.363Z,81.94
2023-01-28T09:25:32.181Z,82.66
2023-01-28T09:28:00.288Z,82.25
2023-01-28T09:30:28.297Z,82.28
2023-01-28T09:32:56.742Z,81.61
2023-01-28T09:35:24.578Z,80.81
2023-01-28T09:37:53.203Z,79.54
2023-01-28T09:40:48.203Z,77.50
2023-01-28T09:43:39.296Z,77.36
2023-01-28T09:46:07.167Z,75.11
2023-01-28T09:48:55.187Z,73.22
2023-01-28T09:51:33.837Z,73.71
2023-01-28T09:54:07.734Z,70.76
2023-01-28T09:56:42.411Z,68.83
2023-01-28T09:59:21.061Z,69.48
2023-01-28T10:01:56.221Z,70.65
2023-01-28T10:04:56.338Z,81.03
2023-01-28T10:07:36.401Z,79.64
2023-01-28T10:10:26.706Z,80.24
2023-01-28T10:13:03.606Z,69.93
2023-01-28T10:15:54.996Z,70.42
2023-01-28T10:18:55.288Z,68.40
2023-01-28T10:21:40.512Z,65.85
2023-01-28T10:24:29.303Z,66.41
2023-01-28T10:26:57.264Z,67.03
2023-01-28T10:29:32.785Z,67.59
2023-01-28T10:32:01.278Z,67.52
2023-01-28T10:34:29.103Z,68.21
2023-01-28T10:36:58.150Z,70.20
2023-01-28T10:39:26.725Z,69.01
2023-01-28T10:41:58.851Z,69.77
2023-01-28T10:44:52.323Z,70.51
2023-01-28T10:47:30.870Z,71.23
2023-01-28T10:50:00.947Z,73.85
2023-01-28T10:52:28.963Z,73.70
2023-01-28T10:55:06.937Z,79.78
2023-01-28T10:57:35.484Z,72.57
2023-01-28T11:00:21.537Z,71.43
2023-01-28T11:02:49.948Z,69.77
2023-01-28T11:05:26.981Z,71.99
2023-01-28T11:08:27.833Z,72.33
2023-01-28T11:10:56.236Z,70.88
2023-01-28T11:13:28.580Z,72.25
2023-01-28T11:16:07.069Z,73.46
2023-01-28T11:18:36.757Z,73.44
2023-01-28T11:21:06.268Z,74.36
2023-01-28T11:23:43.160Z,74.86
2023-01-28T11:26:28.367Z,75.17
2023-01-28T11:28:56.170Z,76.87
2023-01-28T11:31:25.371Z,76.27
2023-01-28T11:34:00.985Z,76.82
2023-01-28T11:36:33.484Z,77.10
2023-01-28T11:39:03.478Z,76.97
2023-01-28T11:41:33.342Z,77.77
2023-01-28T11:44:17.638Z,77.92
2023-01-28T11:46:48.309Z,77.76
2023-01-28T11:49:29.515Z,78.27
2023-01-28T11:52:19.605Z,77.23
2023-01-28T11:55:24.900Z,79.05
2023-01-28T11:57:56.319Z,78.49
2023-01-28T12:00:48.886Z,79.55
2023-01-28T12:03:35.081Z,78.22
2023-01-28T12:06:30.792Z,79.33
2023-01-28T12:09:01.651Z,79.76
2023-01-28T12:12:04.921Z,79.34
2023-01-28T12:15:05.002Z,78.44
2023-01-28T12:17:38.603Z,78.39
2023-01-28T12:20:15.419Z,78.73
2023-01-28T12:22:56.600Z,79.99
2023-01-28T12:25:33.228Z,80.03
2023-01-28T12:28:38.599Z,79.04
2023-01-28T12:31:34.472Z,80.15
2023-01-28T12:34:23.727Z,80.17
2023-01-28T12:36:56.450Z,79.87
2023-01-28T12:39:33.604Z,80.27
2023-01-28T12:42:16.681Z,80.82
2023-01-28T12:44:55.973Z,79.56
2023-01-28T12:47:25.881Z,79.92
2023-01-28T12:49:59.699Z,79.89
2023-01-28T12:52:34.417Z,79.70
2023-01-28T12:55:14.220Z,80.53
2023-01-28T12:57:42.100Z,79.32
2023-01-28T13:00:27.219Z,80.17
2023-01-28T13:03:12.639Z,78.77
2023-01-28T13:05:43.397Z,80.07
2023-01-28T13:08:19.135Z,78.86
2023-01-28T13:10:48.025Z,80.51
2023-01-28T13:13:35.867Z,80.44
2023-01-28T13:16:04.868Z,79.71
2023-01-28T13:18:52.926Z,78.81
2023-01-28T13:21:27.910Z,80.55
2023-01-28T13:24:18.755Z,80.00
2023-01-28T13:26:51.532Z,78.03
2023-01-28T13:29:25.345Z,79.25
2023-01-28T13:31:56.179Z,79.63
2023-01-28T13:34:57.401Z,78.92
2023-01-28T13:37:36.181Z,79.24
2023-01-28T13:40:26.783Z,76.99
2023-01-28T13:43:01.482Z,77.55
2023-01-28T13:45:29.302Z,78.51
2023-01-28T13:48:25.397Z,78.54
2023-01-28T13:50:54.301Z,79.83
2023-01-28T13:53:41.388Z,78.90
2023-01-28T13:56:17.253Z,79.84
2023-01-28T13:58:50.903Z,79.20
2023-01-28T14:01:27.612Z,79.77
2023-01-28T14:04:26.299Z,79.59
2023-01-28T14:07:17.421Z,76.97
2023-01-28T14:10:04.685Z,77.54
2023-01-28T14:12:48.019Z,77.39
2023-01-28T14:15:31.488Z,77.52
2023-01-28T14:17:59.302Z,77.37
2023-01-28T14:20:56.983Z,77.75
2023-01-28T14:23:24.888Z,78.58
2023-01-28T14:25:52.601Z,78.14
2023-01-28T14:28:40.555Z,78.00
2023-01-28T14:31:35.167Z,77.14
2023-01-28T14:34:14.191Z,77.28
2023-01-28T14:36:42.590Z,78.62
2023-01-28T14:39:20.892Z,78.17
2023-01-28T14:41:53.013Z,78.96
2023-01-28T14:44:43.972Z,79.15
2023-01-28T14:47:43.484Z,78.68
2023-01-28T14:50:30.487Z,79.04
2023-01-28T14:53:29.421Z,77.88
2023-01-28T14:56:01.806Z,78.97
2023-01-28T14:58:32.991Z,78.66
2023-01-28T15:01:01.403Z,77.57
2023-01-28T15:03:30.301Z,78.71
2023-01-28T15:06:08.628Z,79.10
2023-01-28T15:08:38.496Z,77.97
2023-01-28T15:11:07.910Z,78.97
2023-01-28T15:13:38.985Z,79.42
2023-01-28T15:16:07.233Z,79.06
2023-01-28T15:18:53.286Z,79.42
2023-01-28T15:21:25.169Z,79.34
2023-01-28T15:23:54.707Z,78.81
2023-01-28T15:26:46.231Z,79.18
2023-01-28T15:29:33.917Z,80.25
2023-01-28T15:32:02.256Z,80.91
2023-01-28T15:34:32.909Z,81.13
2023-01-28T15:37:01.425Z,78.77
2023-01-28T15:39:30.590Z,79.16
2023-01-28T15:42:06.694Z,78.21
2023-01-28T15:44:45.055Z,78.92
2023-01-28T15:47:21.488Z,78.17
2023-01-28T15:49:51.393Z,79.21
2023-01-28T15:52:19.357Z,78.98
2023-01-28T15:54:52.389Z,79.19
2023-01-28T15:57:38.891Z,80.13
2023-01-28T16:00:16.708Z,79.39
2023-01-28T16:02:46.175Z,78.88
2023-01-28T16:05:26.906Z,79.27
2023-01-28T16:07:55.061Z,80.22
2023-01-28T16:10:26.235Z,79.84
2023-01-28T16:12:56.006Z,79.79
2023-01-28T16:15:23.974Z,79.72
2023-01-28T16:17:52.659Z,80.15
2023-01-28T16:20:28.159Z,78.90
2023-01-28T16:23:03.368Z,79.00
2023-01-28T16:25:35.926Z,79.84
2023-01-28T16:28:04.064Z,78.51
2023-01-28T16:30:32.020Z,78.41
2023-01-28T16:33:00.004Z,79.48
2023-01-28T16:35:41.781Z,79.29
2023-01-28T16:38:20.008Z,78.03
2023-01-28T16:40:48.165Z,78.56
2023-01-28T16:43:16.709Z,77.65
2023-01-28T16:45:45.999Z,78.82
2023-01-28T16:48:14.085Z,78.42
2023-01-28T16:50:42.443Z,77.78
2023-01-28T16:53:27.416Z,78.50
2023-01-28T16:55:56.183Z,78.16
2023-01-28T16:58:25.278Z,77.11
2023-01-28T17:00:54.450Z,78.05
2023-01-28T17:03:22.303Z,78.33
2023-01-28T17:05:50.108Z,78.31
2023-01-28T17:08:18.258Z,79.07
2023-01-28T17:10:46.223Z,79.16
2023-01-28T17:13:14.075Z,79.95
2023-01-28T17:15:43.920Z,79.63
2023-01-28T17:18:12.552Z,79.48
2023-01-28T17:20:41.633Z,78.99
2023-01-28T17:23:10.459Z,79.00
2023-01-28T17:25:41.359Z,78.91
2023-01-28T17:28:09.653Z,79.17
2023-01-28T17:30:41.215Z,79.64
2023-01-28T17:33:09.598Z,78.98
2023-01-28T17:35:37.465Z,79.88
2023-01-28T17:38:06.415Z,79.69
2023-01-28T17:40:34.328Z,78.88
2023-01-28T17:43:02.154Z,79.35
2023-01-28T17:45:32.500Z,80.00
2023-01-28T17:48:00.587Z,80.10
2023-01-28T17:50:28.563Z,80.43
2023-01-28T17:52:57.303Z,79.58
2023-01-28T17:55:25.675Z,80.41
2023-01-28T17:57:53.589Z,80.07
2023-01-28T18:00:22.157Z,80.27
2023-01-28T18:02:53.660Z,81.03
2023-01-28T18:05:21.845Z,81.01
2023-01-28T18:07:51.422Z,81.14
2023-01-28T18:10:19.443Z,82.06
2023-01-28T18:12:47.737Z,81.32
2023-01-28T18:15:16.037Z,81.13
2023-01-28T18:17:44.286Z,81.71
2023-01-28T18:20:12.456Z,82.10
2023-01-28T18:22:40.377Z,81.78
2023-01-28T18:25:08.616Z,81.53
2023-01-28T18:27:36.456Z,81.71
2023-01-28T18:30:04.381Z,82.86
2023-01-28T18:32:32.412Z,82.51
2023-01-28T18:35:00.220Z,82.42
2023-01-28T18:37:28.239Z,82.66
2023-01-28T18:39:56.108Z,82.83
2023-01-28T18:42:23.983Z,82.94
2023-01-28T18:44:51.865Z,82.43
2023-01-28T18:47:19.810Z,83.25
2023-01-28T18:49:47.647Z,83.79
2023-01-28T18:52:15.380Z,83.50
2023-01-28T18:54:43.221Z,83.67
2023-01-28T18:57:11.042Z,83.61
2023-01-28T18:59:39.390Z,82.98
2023-01-28T19:02:07.554Z,83.38
2023-01-28T19:04:35.381Z,83.12
2023-01-28T19:07:03.415Z,82.95
2023-01-28T19:09:31.165Z,83.54
2023-01-28T19:11:59.012Z,83.62
2023-01-28T19:14:26.754Z,83.71
2023-01-28T19:16:54.587Z,83.52
2023-01-28T19:19:22.350Z,83.95
2023-01-28T19:21:50.301Z,84.44
2023-01-28T19:24:18.226Z,84.07
2023-01-28T19:26:46.144Z,83.82
2023-01-28T19:29:15.791Z,84.39
2023-01-28T19:31:44.957Z,84.58
2023-01-28T19:34:12.989Z,84.85
2023-01-28T19:36:41.437Z,84.54
2023-01-28T19:39:09.677Z,84.82
2023-01-28T19:41:37.764Z,84.66
2023-01-28T19:44:06.115Z,85.07
2023-01-28T19:46:34.400Z,84.66
2023-01-28T19:49:02.218Z,84.91
2023-01-28T19:51:30.061Z,85.16
2023-01-28T19:53:57.981Z,85.60
2023-01-28T19:56:28.167Z,85.22
2023-01-28T19:58:56.013Z,85.67
2023-01-28T20:01:27.261Z,85.90
2023-01-28T20:03:59.915Z,86.32
2023-01-28T20:06:28.969Z,86.30
2023-01-28T20:08:58.983Z,87.08
2023-01-28T20:11:26.899Z,86.24
2023-01-28T20:13:55.840Z,87.03
2023-01-28T20:16:27.595Z,87.01
2023-01-28T20:19:00.540Z,86.81
2023-01-28T20:21:29.058Z,87.23
2023-01-28T20:23:57.600Z,87.41
2023-01-28T20:26:27.144Z,87.35
2023-01-28T20:28:54.934Z,87.59
2023-01-28T20:31:22.837Z,87.99
2023-01-28T20:33:50.754Z,87.95
2023-01-28T20:36:18.663Z,87.72
2023-01-28T20:38:47.359Z,87.79
2023-01-28T20:41:21.963Z,87.86
2023-01-28T20:43:50.307Z,88.15
2023-01-28T20:46:21.270Z,88.12
2023-01-28T20:48:49.372Z,87.96
2023-01-28T20:51:18.878Z,88.11
2023-01-28T20:53:47.227Z,88.52
2023-01-28T20:56:15.871Z,88.37
2023-01-28T20:58:44.789Z,88.48
2023-01-28T21:01:24.540Z,87.79
2023-01-28T21:03:52.373Z,88.34
2023-01-28T21:06:20.376Z,87.64
2023-01-28T21:08:48.210Z,87.75
2023-01-28T21:11:16.234Z,87.54
2023-01-28T21:13:44.104Z,87.71
2023-01-28T21:16:11.975Z,87.92
2023-01-28T21:18:39.775Z,88.14
2023-01-28T21:21:28.301Z,87.59
2023-01-28T21:23:58.832Z,87.40
2023-01-28T21:26:27.174Z,88.07
2023-01-28T21:28:55.108Z,86.77
2023-01-28T21:31:24.874Z,87.65
2023-01-28T21:33:54.210Z,87.06
2023-01-28T21:36:22.048Z,87.06
2023-01-28T21:38:57.791Z,86.92
2023-01-28T21:41:25.844Z,86.24
2023-01-28T21:43:54.863Z,86.15
2023-01-28T21:46:26.780Z,85.81
2023-01-28T21:48:58.612Z,86.33
2023-01-28T21:51:46.887Z,85.43
2023-01-28T21:54:18.870Z,86.15
2023-01-28T21:56:47.589Z,86.36
2023-01-28T21:59:37.404Z,86.78
2023-01-28T22:02:11.750Z,86.84
2023-01-28T22:04:40.915Z,86.43
2023-01-28T22:07:10.448Z,87.20
2023-01-28T22:09:38.839Z,87.36
2023-01-28T22:12:09.159Z,87.57
2023-01-28T22:14:37.736Z,87.58
2023-01-28T22:17:06.019Z,88.02
2023-01-28T22:19:34.069Z,88.22
2023-01-28T22:22:02.790Z,88.84
2023-01-28T22:24:31.732Z,88.80
2023-01-28T22:26:59.716Z,89.34
2023-01-28T22:29:28.058Z,89.71
2023-01-28T22:31:56.029Z,89.77
2023-01-28T22:34:24.109Z,90.39
2023-01-28T22:36:52.285Z,90.53
2023-01-28T22:39:20.393Z,90.74
2023-01-28T22:41:48.563Z,90.76
2023-01-28T22:44:16.544Z,90.82
2023-01-28T22:46:44.504Z,91.29
2023-01-28T22:49:13.176Z,91.18
2023-01-28T22:51:41.043Z,91.25
2023-01-28T22:54:09.261Z,91.53
2023-01-28T22:56:37.211Z,91.95
2023-01-28T22:59:05.345Z,91.99
2023-01-28T23:01:33.390Z,91.70
2023-01-28T23:04:01.321Z,91.72
2023-01-28T23:06:29.694Z,91.68
2023-01-28T23:08:57.637Z,91.52
2023-01-28T23:11:29.575Z,91.36
2023-01-28T23:14:17.447Z,91.90
2023-01-28T23:17:03.972Z,91.01
2023-01-28T23:19:50.604Z,91.31
2023-01-28T23:22:41.947Z,91.11
2023-01-28T23:25:09.895Z,91.67
2023-01-28T23:27:37.906Z,91.64
2023-01-28T23:30:11.018Z,91.70
2023-01-28T23:32:43.868Z,91.15
2023-01-28T23:35:11.800Z,91.72
2023-01-28T23:37:39.899Z,91.58
2023-01-28T23:40:08.311Z,91.59
2023-01-28T23:42:36.379Z,91.50
2023-01-28T23:45:04.452Z,91.36
2023-01-28T23:47:32.315Z,91.09
2023-01-28T23:50:00.559Z,91.50
2023-01-28T23:52:28.561Z,91.41
2023-01-28T23:54:56.822Z,91.33
2023-01-28T23:57:24.611Z,91.15
2023-01-28T23:59:52.479Z,91.60
